sensor_id;sensor_type;location;lat;lon;timestamp;P1;durP1;ratioP1;P2;durP2;ratioP2
24161;SDS011;12318;51.262;7.066;2023-09-30T00:02:22;21.08;;;6.65;;
24161;SDS011;12318;51.262;7.066;2023-09-30T00:04:48;24.08;;;8.35;;
24161;SDS011;12318;51.262;7.066;2023-09-30T00:07:19;22.85;;;7.57;;
24161;SDS011;12318;51.262;7.066;2023-09-30T00:09:45;23.05;;;7.78;;
24161;SDS011;12318;51.262;7.066;2023-09-30T00:12:11;28.55;;;7.75;;
24161;SDS011;12318;51.262;7.066;2023-09-30T00:14:40;25.75;;;7.20;;
24161;SDS011;12318;51.262;7.066;2023-09-30T00:17:07;20.15;;;6.85;;
24161;SDS011;12318;51.262;7.066;2023-09-30T00:19:36;24.95;;;7.82;;
24161;SDS011;12318;51.262;7.066;2023-09-30T00:22:04;18.70;;;6.55;;
24161;SDS011;12318;51.262;7.066;2023-09-30T00:24:31;23.60;;;7.65;;
24161;SDS011;12318;51.262;7.066;2023-09-30T00:26:59;27.85;;;8.32;;
24161;SDS011;12318;51.262;7.066;2023-09-30T00:29:28;27.70;;;8.52;;
24161;SDS011;12318;51.262;7.066;2023-09-30T00:31:55;25.15;;;9.05;;
24161;SDS011;12318;51.262;7.066;2023-09-30T00:34:24;29.45;;;9.40;;
24161;SDS011;12318;51.262;7.066;2023-09-30T00:36:50;31.02;;;9.65;;
24161;SDS011;12318;51.262;7.066;2023-09-30T00:39:17;33.05;;;9.38;;
24161;SDS011;12318;51.262;7.066;2023-09-30T00:41:44;28.98;;;10.32;;
24161;SDS011;12318;51.262;7.066;2023-09-30T00:44:10;33.28;;;8.73;;
24161;SDS011;12318;51.262;7.066;2023-09-30T00:46:37;27.58;;;8.98;;
24161;SDS011;12318;51.262;7.066;2023-09-30T00:49:08;25.55;;;9.23;;
24161;SDS011;12318;51.262;7.066;2023-09-30T00:51:35;32.10;;;9.20;;
24161;SDS011;12318;51.262;7.066;2023-09-30T00:54:03;23.45;;;8.68;;
24161;SDS011;12318;51.262;7.066;2023-09-30T00:56:29;20.40;;;7.07;;
24161;SDS011;12318;51.262;7.066;2023-09-30T00:58:59;21.75;;;7.47;;
24161;SDS011;12318;51.262;7.066;2023-09-30T01:01:25;26.60;;;8.60;;
24161;SDS011;12318;51.262;7.066;2023-09-30T01:03:53;29.10;;;9.48;;
24161;SDS011;12318;51.262;7.066;2023-09-30T01:06:20;23.88;;;7.90;;
24161;SDS011;12318;51.262;7.066;2023-09-30T01:08:48;30.55;;;9.32;;
24161;SDS011;12318;51.262;7.066;2023-09-30T01:11:15;20.27;;;5.75;;
24161;SDS011;12318;51.262;7.066;2023-09-30T01:16:12;15.48;;;5.38;;
24161;SDS011;12318;51.262;7.066;2023-09-30T01:18:39;23.35;;;7.43;;
24161;SDS011;12318;51.262;7.066;2023-09-30T01:21:07;34.35;;;9.20;;
24161;SDS011;12318;51.262;7.066;2023-09-30T01:23:40;31.15;;;10.15;;
24161;SDS011;12318;51.262;7.066;2023-09-30T01:26:10;25.73;;;8.82;;
24161;SDS011;12318;51.262;7.066;2023-09-30T01:31:06;33.80;;;9.68;;
24161;SDS011;12318;51.262;7.066;2023-09-30T01:33:33;28.45;;;9.40;;
24161;SDS011;12318;51.262;7.066;2023-09-30T01:36:01;22.65;;;7.57;;
24161;SDS011;12318;51.262;7.066;2023-09-30T01:38:27;19.75;;;7.03;;
24161;SDS011;12318;51.262;7.066;2023-09-30T01:40:53;14.68;;;6.85;;
24161;SDS011;12318;51.262;7.066;2023-09-30T01:43:19;20.58;;;7.13;;
24161;SDS011;12318;51.262;7.066;2023-09-30T01:45:46;19.00;;;7.18;;
24161;SDS011;12318;51.262;7.066;2023-09-30T01:48:15;26.23;;;8.63;;
24161;SDS011;12318;51.262;7.066;2023-09-30T01:50:41;18.33;;;7.32;;
24161;SDS011;12318;51.262;7.066;2023-09-30T01:53:09;25.00;;;8.27;;
24161;SDS011;12318;51.262;7.066;2023-09-30T01:55:35;28.85;;;9.02;;
24161;SDS011;12318;51.262;7.066;2023-09-30T01:58:02;32.13;;;8.90;;
24161;SDS011;12318;51.262;7.066;2023-09-30T02:00:29;29.90;;;9.63;;
24161;SDS011;12318;51.262;7.066;2023-09-30T02:02:56;22.60;;;7.35;;
24161;SDS011;12318;51.262;7.066;2023-09-30T02:05:23;26.60;;;8.05;;
24161;SDS011;12318;51.262;7.066;2023-09-30T02:07:51;25.10;;;7.35;;
24161;SDS011;12318;51.262;7.066;2023-09-30T02:10:18;20.63;;;7.85;;
24161;SDS011;12318;51.262;7.066;2023-09-30T02:12:50;26.02;;;7.68;;
24161;SDS011;12318;51.262;7.066;2023-09-30T02:15:19;17.23;;;6.90;;
24161;SDS011;12318;51.262;7.066;2023-09-30T02:17:45;20.60;;;7.13;;
24161;SDS011;12318;51.262;7.066;2023-09-30T02:20:14;21.88;;;8.23;;
24161;SDS011;12318;51.262;7.066;2023-09-30T02:22:43;20.88;;;7.95;;
24161;SDS011;12318;51.262;7.066;2023-09-30T02:25:10;20.70;;;7.28;;
24161;SDS011;12318;51.262;7.066;2023-09-30T02:27:37;21.02;;;7.50;;
24161;SDS011;12318;51.262;7.066;2023-09-30T02:30:03;21.80;;;8.13;;
24161;SDS011;12318;51.262;7.066;2023-09-30T02:32:33;19.52;;;7.20;;
24161;SDS011;12318;51.262;7.066;2023-09-30T02:35:02;29.42;;;9.50;;
24161;SDS011;12318;51.262;7.066;2023-09-30T02:37:31;21.25;;;7.72;;
24161;SDS011;12318;51.262;7.066;2023-09-30T02:40:02;23.10;;;8.18;;
24161;SDS011;12318;51.262;7.066;2023-09-30T02:42:31;20.80;;;7.00;;
24161;SDS011;12318;51.262;7.066;2023-09-30T02:47:28;27.52;;;9.02;;
24161;SDS011;12318;51.262;7.066;2023-09-30T02:49:57;29.13;;;10.18;;
24161;SDS011;12318;51.262;7.066;2023-09-30T02:52:25;23.42;;;8.68;;
24161;SDS011;12318;51.262;7.066;2023-09-30T02:54:53;27.13;;;9.77;;
24161;SDS011;12318;51.262;7.066;2023-09-30T02:57:19;23.08;;;7.63;;
24161;SDS011;12318;51.262;7.066;2023-09-30T02:59:45;26.17;;;9.27;;
24161;SDS011;12318;51.262;7.066;2023-09-30T03:02:11;28.30;;;9.38;;
24161;SDS011;12318;51.262;7.066;2023-09-30T03:04:39;28.30;;;8.73;;
24161;SDS011;12318;51.262;7.066;2023-09-30T03:07:08;27.33;;;8.05;;
24161;SDS011;12318;51.262;7.066;2023-09-30T03:09:35;20.67;;;7.25;;
24161;SDS011;12318;51.262;7.066;2023-09-30T03:14:33;32.97;;;9.32;;
24161;SDS011;12318;51.262;7.066;2023-09-30T03:17:01;27.17;;;9.27;;
24161;SDS011;12318;51.262;7.066;2023-09-30T03:19:29;23.13;;;8.25;;
24161;SDS011;12318;51.262;7.066;2023-09-30T03:21:56;20.60;;;7.05;;
24161;SDS011;12318;51.262;7.066;2023-09-30T03:24:23;19.65;;;7.38;;
24161;SDS011;12318;51.262;7.066;2023-09-30T03:26:50;16.40;;;6.72;;
24161;SDS011;12318;51.262;7.066;2023-09-30T03:29:17;22.20;;;7.95;;
24161;SDS011;12318;51.262;7.066;2023-09-30T03:31:43;20.17;;;6.85;;
24161;SDS011;12318;51.262;7.066;2023-09-30T03:34:10;22.63;;;7.05;;
24161;SDS011;12318;51.262;7.066;2023-09-30T03:36:41;20.75;;;7.68;;
24161;SDS011;12318;51.262;7.066;2023-09-30T03:39:08;23.75;;;7.47;;
24161;SDS011;12318;51.262;7.066;2023-09-30T03:41:39;23.48;;;7.07;;
24161;SDS011;12318;51.262;7.066;2023-09-30T03:44:05;22.33;;;6.47;;
24161;SDS011;12318;51.262;7.066;2023-09-30T03:46:32;25.52;;;8.82;;
24161;SDS011;12318;51.262;7.066;2023-09-30T03:48:59;28.58;;;9.13;;
24161;SDS011;12318;51.262;7.066;2023-09-30T03:51:33;27.80;;;8.85;;
24161;SDS011;12318;51.262;7.066;2023-09-30T03:54:02;32.53;;;9.27;;
24161;SDS011;12318;51.262;7.066;2023-09-30T03:56:30;21.88;;;7.43;;
24161;SDS011;12318;51.262;7.066;2023-09-30T03:58:56;22.25;;;7.45;;
24161;SDS011;12318;51.262;7.066;2023-09-30T04:01:23;24.85;;;7.22;;
24161;SDS011;12318;51.262;7.066;2023-09-30T04:03:51;32.40;;;9.52;;
24161;SDS011;12318;51.262;7.066;2023-09-30T04:06:21;31.60;;;9.85;;
24161;SDS011;12318;51.262;7.066;2023-09-30T04:08:49;31.23;;;10.00;;
24161;SDS011;12318;51.262;7.066;2023-09-30T04:11:18;43.53;;;11.93;;
24161;SDS011;12318;51.262;7.066;2023-09-30T04:13:46;29.63;;;10.77;;
24161;SDS011;12318;51.262;7.066;2023-09-30T04:16:12;36.53;;;12.02;;
24161;SDS011;12318;51.262;7.066;2023-09-30T04:18:38;43.75;;;13.18;;
24161;SDS011;12318;51.262;7.066;2023-09-30T04:21:07;39.33;;;13.65;;
24161;SDS011;12318;51.262;7.066;2023-09-30T04:23:33;39.42;;;13.38;;
24161;SDS011;12318;51.262;7.066;2023-09-30T04:26:04;36.85;;;13.82;;
24161;SDS011;12318;51.262;7.066;2023-09-30T04:28:32;35.70;;;12.32;;
24161;SDS011;12318;51.262;7.066;2023-09-30T04:30:59;35.40;;;13.73;;
24161;SDS011;12318;51.262;7.066;2023-09-30T04:33:30;37.60;;;13.23;;
24161;SDS011;12318;51.262;7.066;2023-09-30T04:35:57;35.38;;;14.25;;
24161;SDS011;12318;51.262;7.066;2023-09-30T04:38:24;36.70;;;15.88;;
24161;SDS011;12318;51.262;7.066;2023-09-30T04:40:52;41.67;;;16.92;;
24161;SDS011;12318;51.262;7.066;2023-09-30T04:43:19;44.90;;;17.80;;
24161;SDS011;12318;51.262;7.066;2023-09-30T04:45:48;46.08;;;18.42;;
24161;SDS011;12318;51.262;7.066;2023-09-30T04:48:17;40.15;;;16.55;;
24161;SDS011;12318;51.262;7.066;2023-09-30T04:50:47;48.15;;;18.40;;
24161;SDS011;12318;51.262;7.066;2023-09-30T04:53:14;43.17;;;13.85;;
24161;SDS011;12318;51.262;7.066;2023-09-30T04:56:04;45.15;;;15.18;;
24161;SDS011;12318;51.262;7.066;2023-09-30T04:58:30;27.08;;;11.77;;
24161;SDS011;12318;51.262;7.066;2023-09-30T05:00:59;34.10;;;12.13;;
24161;SDS011;12318;51.262;7.066;2023-09-30T05:03:28;33.95;;;12.30;;
24161;SDS011;12318;51.262;7.066;2023-09-30T05:05:55;38.20;;;12.93;;
24161;SDS011;12318;51.262;7.066;2023-09-30T05:08:24;30.20;;;11.90;;
24161;SDS011;12318;51.262;7.066;2023-09-30T05:10:50;35.58;;;12.82;;
24161;SDS011;12318;51.262;7.066;2023-09-30T05:13:21;33.65;;;13.05;;
24161;SDS011;12318;51.262;7.066;2023-09-30T05:15:53;42.58;;;16.45;;
24161;SDS011;12318;51.262;7.066;2023-09-30T05:18:21;45.47;;;17.25;;
24161;SDS011;12318;51.262;7.066;2023-09-30T05:20:49;32.42;;;14.75;;
24161;SDS011;12318;51.262;7.066;2023-09-30T05:23:18;45.28;;;17.90;;
24161;SDS011;12318;51.262;7.066;2023-09-30T05:25:50;26.52;;;12.38;;
24161;SDS011;12318;51.262;7.066;2023-09-30T05:28:22;52.28;;;18.55;;
24161;SDS011;12318;51.262;7.066;2023-09-30T05:30:50;56.50;;;18.38;;
24161;SDS011;12318;51.262;7.066;2023-09-30T05:33:16;53.60;;;19.20;;
24161;SDS011;12318;51.262;7.066;2023-09-30T05:35:45;55.90;;;20.10;;
24161;SDS011;12318;51.262;7.066;2023-09-30T05:38:12;44.33;;;18.17;;
24161;SDS011;12318;51.262;7.066;2023-09-30T05:40:42;69.97;;;19.92;;
24161;SDS011;12318;51.262;7.066;2023-09-30T05:43:09;82.53;;;21.15;;
24161;SDS011;12318;51.262;7.066;2023-09-30T05:45:39;55.08;;;17.35;;
24161;SDS011;12318;51.262;7.066;2023-09-30T05:48:15;34.55;;;14.10;;
24161;SDS011;12318;51.262;7.066;2023-09-30T05:50:44;43.70;;;18.05;;
24161;SDS011;12318;51.262;7.066;2023-09-30T05:53:10;57.97;;;16.67;;
24161;SDS011;12318;51.262;7.066;2023-09-30T05:55:38;59.80;;;20.30;;
24161;SDS011;12318;51.262;7.066;2023-09-30T05:58:06;52.35;;;16.90;;
24161;SDS011;12318;51.262;7.066;2023-09-30T06:00:33;47.30;;;18.48;;
24161;SDS011;12318;51.262;7.066;2023-09-30T06:03:03;56.83;;;18.77;;
24161;SDS011;12318;51.262;7.066;2023-09-30T06:05:34;60.88;;;17.88;;
24161;SDS011;12318;51.262;7.066;2023-09-30T06:08:07;48.25;;;17.67;;
24161;SDS011;12318;51.262;7.066;2023-09-30T06:10:39;170.48;;;23.00;;
24161;SDS011;12318;51.262;7.066;2023-09-30T06:13:10;127.15;;;19.13;;
24161;SDS011;12318;51.262;7.066;2023-09-30T06:15:38;143.32;;;23.42;;
24161;SDS011;12318;51.262;7.066;2023-09-30T06:18:06;86.10;;;22.75;;
24161;SDS011;12318;51.262;7.066;2023-09-30T06:20:33;62.00;;;19.98;;
24161;SDS011;12318;51.262;7.066;2023-09-30T06:22:59;41.10;;;19.35;;
24161;SDS011;12318;51.262;7.066;2023-09-30T06:25:27;33.42;;;16.30;;
24161;SDS011;12318;51.262;7.066;2023-09-30T06:27:58;42.03;;;19.25;;
24161;SDS011;12318;51.262;7.066;2023-09-30T06:30:28;62.90;;;22.45;;
24161;SDS011;12318;51.262;7.066;2023-09-30T06:32:56;41.75;;;19.55;;
24161;SDS011;12318;51.262;7.066;2023-09-30T06:35:25;43.13;;;20.77;;
24161;SDS011;12318;51.262;7.066;2023-09-30T06:37:53;29.00;;;15.52;;
24161;SDS011;12318;51.262;7.066;2023-09-30T06:40:21;39.10;;;19.27;;
24161;SDS011;12318;51.262;7.066;2023-09-30T06:42:47;39.08;;;17.45;;
24161;SDS011;12318;51.262;7.066;2023-09-30T06:45:13;44.05;;;19.27;;
24161;SDS011;12318;51.262;7.066;2023-09-30T06:47:41;39.75;;;18.63;;
24161;SDS011;12318;51.262;7.066;2023-09-30T06:50:11;43.70;;;19.13;;
24161;SDS011;12318;51.262;7.066;2023-09-30T06:52:42;41.63;;;19.10;;
24161;SDS011;12318;51.262;7.066;2023-09-30T06:55:11;41.78;;;18.77;;
24161;SDS011;12318;51.262;7.066;2023-09-30T06:57:39;44.50;;;19.70;;
24161;SDS011;12318;51.262;7.066;2023-09-30T07:00:08;41.83;;;19.45;;
24161;SDS011;12318;51.262;7.066;2023-09-30T07:02:38;41.85;;;19.98;;
24161;SDS011;12318;51.262;7.066;2023-09-30T07:05:07;43.67;;;19.27;;
24161;SDS011;12318;51.262;7.066;2023-09-30T07:07:34;42.92;;;19.73;;
24161;SDS011;12318;51.262;7.066;2023-09-30T07:10:02;37.55;;;18.25;;
24161;SDS011;12318;51.262;7.066;2023-09-30T07:12:50;42.55;;;18.77;;
24161;SDS011;12318;51.262;7.066;2023-09-30T07:15:16;37.72;;;17.30;;
24161;SDS011;12318;51.262;7.066;2023-09-30T07:17:42;43.15;;;18.88;;
24161;SDS011;12318;51.262;7.066;2023-09-30T07:20:11;42.90;;;17.67;;
24161;SDS011;12318;51.262;7.066;2023-09-30T07:22:38;36.00;;;17.60;;
24161;SDS011;12318;51.262;7.066;2023-09-30T07:25:05;31.95;;;15.88;;
24161;SDS011;12318;51.262;7.066;2023-09-30T07:27:35;41.40;;;19.20;;
24161;SDS011;12318;51.262;7.066;2023-09-30T07:30:01;28.35;;;15.98;;
24161;SDS011;12318;51.262;7.066;2023-09-30T07:32:27;32.78;;;16.65;;
24161;SDS011;12318;51.262;7.066;2023-09-30T07:34:54;35.15;;;17.02;;
24161;SDS011;12318;51.262;7.066;2023-09-30T07:37:22;30.13;;;17.20;;
24161;SDS011;12318;51.262;7.066;2023-09-30T07:39:50;30.00;;;16.30;;
24161;SDS011;12318;51.262;7.066;2023-09-30T07:42:17;39.30;;;18.50;;
24161;SDS011;12318;51.262;7.066;2023-09-30T07:44:43;35.50;;;17.77;;
24161;SDS011;12318;51.262;7.066;2023-09-30T07:47:10;36.85;;;18.35;;
24161;SDS011;12318;51.262;7.066;2023-09-30T07:49:37;46.63;;;19.27;;
24161;SDS011;12318;51.262;7.066;2023-09-30T07:52:03;35.25;;;18.23;;
24161;SDS011;12318;51.262;7.066;2023-09-30T07:54:29;32.80;;;16.95;;
24161;SDS011;12318;51.262;7.066;2023-09-30T07:56:55;38.72;;;17.27;;
24161;SDS011;12318;51.262;7.066;2023-09-30T07:59:24;29.33;;;16.30;;
24161;SDS011;12318;51.262;7.066;2023-09-30T08:01:51;33.38;;;15.75;;
24161;SDS011;12318;51.262;7.066;2023-09-30T08:04:23;34.80;;;14.23;;
24161;SDS011;12318;51.262;7.066;2023-09-30T08:06:50;30.00;;;14.98;;
24161;SDS011;12318;51.262;7.066;2023-09-30T08:09:17;29.17;;;14.68;;
24161;SDS011;12318;51.262;7.066;2023-09-30T08:11:44;28.60;;;13.63;;
24161;SDS011;12318;51.262;7.066;2023-09-30T08:14:10;32.22;;;13.13;;
24161;SDS011;12318;51.262;7.066;2023-09-30T08:16:38;28.45;;;12.38;;
24161;SDS011;12318;51.262;7.066;2023-09-30T08:19:08;26.85;;;11.43;;
24161;SDS011;12318;51.262;7.066;2023-09-30T08:21:47;28.95;;;11.73;;
24161;SDS011;12318;51.262;7.066;2023-09-30T08:24:14;22.00;;;10.32;;
24161;SDS011;12318;51.262;7.066;2023-09-30T08:26:40;27.10;;;12.55;;
24161;SDS011;12318;51.262;7.066;2023-09-30T08:29:09;24.65;;;12.75;;
24161;SDS011;12318;51.262;7.066;2023-09-30T08:31:37;26.80;;;11.57;;
24161;SDS011;12318;51.262;7.066;2023-09-30T08:34:04;29.35;;;13.23;;
24161;SDS011;12318;51.262;7.066;2023-09-30T08:36:30;37.22;;;14.40;;
24161;SDS011;12318;51.262;7.066;2023-09-30T08:38:57;34.08;;;14.20;;
24161;SDS011;12318;51.262;7.066;2023-09-30T08:41:30;28.42;;;13.95;;
24161;SDS011;12318;51.262;7.066;2023-09-30T08:43:59;31.95;;;13.68;;
24161;SDS011;12318;51.262;7.066;2023-09-30T08:46:29;28.42;;;12.18;;
24161;SDS011;12318;51.262;7.066;2023-09-30T08:48:58;30.00;;;12.18;;
24161;SDS011;12318;51.262;7.066;2023-09-30T08:51:25;25.98;;;11.85;;
24161;SDS011;12318;51.262;7.066;2023-09-30T08:53:53;25.50;;;11.50;;
24161;SDS011;12318;51.262;7.066;2023-09-30T08:56:24;26.38;;;12.43;;
24161;SDS011;12318;51.262;7.066;2023-09-30T08:58:52;25.52;;;10.90;;
24161;SDS011;12318;51.262;7.066;2023-09-30T09:01:19;30.48;;;11.00;;
24161;SDS011;12318;51.262;7.066;2023-09-30T09:03:50;21.88;;;9.70;;
24161;SDS011;12318;51.262;7.066;2023-09-30T09:06:21;23.08;;;9.60;;
24161;SDS011;12318;51.262;7.066;2023-09-30T09:08:53;18.45;;;8.20;;
24161;SDS011;12318;51.262;7.066;2023-09-30T09:11:20;24.08;;;9.00;;
24161;SDS011;12318;51.262;7.066;2023-09-30T09:13:49;20.00;;;7.68;;
24161;SDS011;12318;51.262;7.066;2023-09-30T09:16:18;21.30;;;7.78;;
24161;SDS011;12318;51.262;7.066;2023-09-30T09:18:45;20.48;;;8.00;;
24161;SDS011;12318;51.262;7.066;2023-09-30T09:21:17;16.58;;;6.88;;
24161;SDS011;12318;51.262;7.066;2023-09-30T09:23:57;18.08;;;7.15;;
24161;SDS011;12318;51.262;7.066;2023-09-30T09:26:30;18.52;;;7.30;;
24161;SDS011;12318;51.262;7.066;2023-09-30T09:29:02;20.55;;;6.68;;
24161;SDS011;12318;51.262;7.066;2023-09-30T09:31:34;18.75;;;7.07;;
24161;SDS011;12318;51.262;7.066;2023-09-30T09:34:13;17.20;;;6.20;;
24161;SDS011;12318;51.262;7.066;2023-09-30T09:36:50;18.42;;;6.82;;
24161;SDS011;12318;51.262;7.066;2023-09-30T09:39:29;19.50;;;7.20;;
24161;SDS011;12318;51.262;7.066;2023-09-30T09:42:00;17.67;;;6.22;;
24161;SDS011;12318;51.262;7.066;2023-09-30T09:44:28;26.63;;;7.47;;
24161;SDS011;12318;51.262;7.066;2023-09-30T09:46:56;17.02;;;7.97;;
24161;SDS011;12318;51.262;7.066;2023-09-30T09:49:27;20.60;;;7.30;;
24161;SDS011;12318;51.262;7.066;2023-09-30T09:51:54;15.23;;;7.78;;
24161;SDS011;12318;51.262;7.066;2023-09-30T09:54:20;17.13;;;7.65;;
24161;SDS011;12318;51.262;7.066;2023-09-30T09:56:47;13.70;;;6.90;;
24161;SDS011;12318;51.262;7.066;2023-09-30T09:59:14;19.33;;;8.55;;
24161;SDS011;12318;51.262;7.066;2023-09-30T10:01:40;13.43;;;7.70;;
24161;SDS011;12318;51.262;7.066;2023-09-30T10:04:11;17.08;;;7.75;;
24161;SDS011;12318;51.262;7.066;2023-09-30T10:06:40;20.23;;;8.50;;
24161;SDS011;12318;51.262;7.066;2023-09-30T10:09:09;15.23;;;8.93;;
24161;SDS011;12318;51.262;7.066;2023-09-30T10:11:39;19.17;;;9.88;;
24161;SDS011;12318;51.262;7.066;2023-09-30T10:14:05;15.82;;;7.88;;
24161;SDS011;12318;51.262;7.066;2023-09-30T10:19:14;12.57;;;5.97;;
24161;SDS011;12318;51.262;7.066;2023-09-30T10:29:40;12.68;;;5.35;;
24161;SDS011;12318;51.262;7.066;2023-09-30T10:32:07;10.77;;;4.78;;
24161;SDS011;12318;51.262;7.066;2023-09-30T10:34:33;13.48;;;4.88;;
24161;SDS011;12318;51.262;7.066;2023-09-30T10:37:15;17.15;;;5.03;;
24161;SDS011;12318;51.262;7.066;2023-09-30T10:39:56;15.00;;;5.18;;
24161;SDS011;12318;51.262;7.066;2023-09-30T10:45:08;18.35;;;5.25;;
24161;SDS011;12318;51.262;7.066;2023-09-30T10:47:54;12.25;;;4.82;;
24161;SDS011;12318;51.262;7.066;2023-09-30T10:50:48;8.63;;;4.63;;
24161;SDS011;12318;51.262;7.066;2023-09-30T10:53:12;11.48;;;4.47;;
24161;SDS011;12318;51.262;7.066;2023-09-30T10:55:38;11.32;;;4.70;;
24161;SDS011;12318;51.262;7.066;2023-09-30T10:58:07;13.85;;;4.50;;
24161;SDS011;12318;51.262;7.066;2023-09-30T11:00:34;11.48;;;3.95;;
24161;SDS011;12318;51.262;7.066;2023-09-30T11:03:00;9.32;;;3.90;;
24161;SDS011;12318;51.262;7.066;2023-09-30T11:05:27;11.65;;;4.32;;
24161;SDS011;12318;51.262;7.066;2023-09-30T11:07:53;12.07;;;4.63;;
24161;SDS011;12318;51.262;7.066;2023-09-30T11:10:22;11.25;;;4.25;;
24161;SDS011;12318;51.262;7.066;2023-09-30T11:12:55;10.32;;;5.05;;
24161;SDS011;12318;51.262;7.066;2023-09-30T11:15:21;10.63;;;3.50;;
24161;SDS011;12318;51.262;7.066;2023-09-30T11:17:48;14.02;;;3.78;;
24161;SDS011;12318;51.262;7.066;2023-09-30T11:20:16;8.13;;;3.33;;
24161;SDS011;12318;51.262;7.066;2023-09-30T11:22:43;11.80;;;4.25;;
24161;SDS011;12318;51.262;7.066;2023-09-30T11:25:15;11.05;;;4.10;;
24161;SDS011;12318;51.262;7.066;2023-09-30T11:27:42;11.88;;;4.05;;
24161;SDS011;12318;51.262;7.066;2023-09-30T11:30:09;8.50;;;3.75;;
24161;SDS011;12318;51.262;7.066;2023-09-30T11:32:35;7.88;;;3.80;;
24161;SDS011;12318;51.262;7.066;2023-09-30T11:35:01;9.02;;;3.58;;
24161;SDS011;12318;51.262;7.066;2023-09-30T11:37:31;11.43;;;4.13;;
24161;SDS011;12318;51.262;7.066;2023-09-30T11:40:09;8.07;;;3.00;;
24161;SDS011;12318;51.262;7.066;2023-09-30T11:42:35;9.05;;;3.13;;
24161;SDS011;12318;51.262;7.066;2023-09-30T11:45:01;10.32;;;4.10;;
24161;SDS011;12318;51.262;7.066;2023-09-30T11:47:30;7.80;;;3.35;;
24161;SDS011;12318;51.262;7.066;2023-09-30T11:49:58;6.68;;;3.35;;
24161;SDS011;12318;51.262;7.066;2023-09-30T11:52:27;12.02;;;3.60;;
24161;SDS011;12318;51.262;7.066;2023-09-30T11:54:53;8.23;;;3.55;;
24161;SDS011;12318;51.262;7.066;2023-09-30T11:57:21;10.63;;;3.80;;
24161;SDS011;12318;51.262;7.066;2023-09-30T11:59:47;10.05;;;3.70;;
24161;SDS011;12318;51.262;7.066;2023-09-30T12:02:14;11.57;;;4.07;;
24161;SDS011;12318;51.262;7.066;2023-09-30T12:04:42;8.45;;;4.20;;
24161;SDS011;12318;51.262;7.066;2023-09-30T12:07:08;9.27;;;3.75;;
24161;SDS011;12318;51.262;7.066;2023-09-30T12:09:35;10.65;;;3.75;;
24161;SDS011;12318;51.262;7.066;2023-09-30T12:12:03;10.93;;;3.80;;
24161;SDS011;12318;51.262;7.066;2023-09-30T12:14:29;11.20;;;3.97;;
24161;SDS011;12318;51.262;7.066;2023-09-30T12:16:56;9.15;;;3.58;;
24161;SDS011;12318;51.262;7.066;2023-09-30T12:19:22;10.25;;;3.78;;
24161;SDS011;12318;51.262;7.066;2023-09-30T12:21:49;10.80;;;3.50;;
24161;SDS011;12318;51.262;7.066;2023-09-30T12:24:15;7.65;;;3.25;;
24161;SDS011;12318;51.262;7.066;2023-09-30T12:26:49;8.32;;;3.90;;
24161;SDS011;12318;51.262;7.066;2023-09-30T12:29:20;10.07;;;3.25;;
24161;SDS011;12318;51.262;7.066;2023-09-30T12:31:50;7.17;;;3.87;;
24161;SDS011;12318;51.262;7.066;2023-09-30T12:34:17;8.05;;;3.50;;
24161;SDS011;12318;51.262;7.066;2023-09-30T12:36:43;11.45;;;3.67;;
24161;SDS011;12318;51.262;7.066;2023-09-30T12:39:10;11.43;;;4.18;;
24161;SDS011;12318;51.262;7.066;2023-09-30T12:41:40;7.75;;;3.30;;
24161;SDS011;12318;51.262;7.066;2023-09-30T12:44:07;8.48;;;3.20;;
24161;SDS011;12318;51.262;7.066;2023-09-30T12:46:33;9.98;;;4.10;;
24161;SDS011;12318;51.262;7.066;2023-09-30T12:49:05;7.53;;;3.30;;
24161;SDS011;12318;51.262;7.066;2023-09-30T12:51:31;10.68;;;3.80;;
24161;SDS011;12318;51.262;7.066;2023-09-30T12:53:58;9.63;;;3.65;;
24161;SDS011;12318;51.262;7.066;2023-09-30T12:56:24;9.05;;;3.50;;
24161;SDS011;12318;51.262;7.066;2023-09-30T12:58:50;8.68;;;3.03;;
24161;SDS011;12318;51.262;7.066;2023-09-30T13:01:16;9.15;;;3.40;;
24161;SDS011;12318;51.262;7.066;2023-09-30T13:03:43;9.20;;;3.20;;
24161;SDS011;12318;51.262;7.066;2023-09-30T13:06:10;9.30;;;3.55;;
24161;SDS011;12318;51.262;7.066;2023-09-30T13:08:36;10.60;;;3.33;;
24161;SDS011;12318;51.262;7.066;2023-09-30T13:11:02;7.57;;;3.30;;
24161;SDS011;12318;51.262;7.066;2023-09-30T13:13:29;9.52;;;3.25;;
24161;SDS011;12318;51.262;7.066;2023-09-30T13:16:04;8.23;;;2.92;;
24161;SDS011;12318;51.262;7.066;2023-09-30T13:18:32;6.65;;;2.58;;
24161;SDS011;12318;51.262;7.066;2023-09-30T13:20:59;8.38;;;3.28;;
24161;SDS011;12318;51.262;7.066;2023-09-30T13:23:25;6.45;;;2.60;;
24161;SDS011;12318;51.262;7.066;2023-09-30T13:25:52;5.95;;;3.08;;
24161;SDS011;12318;51.262;7.066;2023-09-30T13:28:19;9.40;;;3.53;;
24161;SDS011;12318;51.262;7.066;2023-09-30T13:30:45;10.95;;;3.88;;
24161;SDS011;12318;51.262;7.066;2023-09-30T13:33:11;10.40;;;3.53;;
24161;SDS011;12318;51.262;7.066;2023-09-30T13:35:37;8.13;;;3.67;;
24161;SDS011;12318;51.262;7.066;2023-09-30T13:38:04;6.13;;;3.33;;
24161;SDS011;12318;51.262;7.066;2023-09-30T13:40:30;9.10;;;3.40;;
24161;SDS011;12318;51.262;7.066;2023-09-30T13:42:56;9.93;;;3.38;;
24161;SDS011;12318;51.262;7.066;2023-09-30T13:45:23;8.90;;;3.20;;
24161;SDS011;12318;51.262;7.066;2023-09-30T13:47:50;6.72;;;2.90;;
24161;SDS011;12318;51.262;7.066;2023-09-30T13:50:16;9.13;;;3.58;;
24161;SDS011;12318;51.262;7.066;2023-09-30T13:52:42;8.23;;;3.28;;
24161;SDS011;12318;51.262;7.066;2023-09-30T13:55:08;19.42;;;8.35;;
24161;SDS011;12318;51.262;7.066;2023-09-30T13:57:35;9.27;;;3.70;;
24161;SDS011;12318;51.262;7.066;2023-09-30T14:00:02;8.80;;;3.17;;
24161;SDS011;12318;51.262;7.066;2023-09-30T14:04:58;7.93;;;3.25;;
24161;SDS011;12318;51.262;7.066;2023-09-30T14:07:24;8.73;;;3.38;;
24161;SDS011;12318;51.262;7.066;2023-09-30T14:09:51;7.70;;;2.92;;
24161;SDS011;12318;51.262;7.066;2023-09-30T14:12:17;10.00;;;3.25;;
24161;SDS011;12318;51.262;7.066;2023-09-30T14:14:43;7.47;;;2.70;;
24161;SDS011;12318;51.262;7.066;2023-09-30T14:17:09;5.95;;;2.60;;
24161;SDS011;12318;51.262;7.066;2023-09-30T14:19:37;6.63;;;2.92;;
24161;SDS011;12318;51.262;7.066;2023-09-30T14:22:04;9.30;;;3.33;;
24161;SDS011;12318;51.262;7.066;2023-09-30T14:24:30;11.18;;;3.45;;
24161;SDS011;12318;51.262;7.066;2023-09-30T14:26:58;12.13;;;3.58;;
24161;SDS011;12318;51.262;7.066;2023-09-30T14:29:24;7.75;;;2.97;;
24161;SDS011;12318;51.262;7.066;2023-09-30T14:31:50;12.10;;;3.40;;
24161;SDS011;12318;51.262;7.066;2023-09-30T14:34:16;7.50;;;2.95;;
24161;SDS011;12318;51.262;7.066;2023-09-30T14:36:43;8.48;;;2.72;;
24161;SDS011;12318;51.262;7.066;2023-09-30T14:39:09;11.00;;;2.63;;
24161;SDS011;12318;51.262;7.066;2023-09-30T14:41:36;7.13;;;2.88;;
24161;SDS011;12318;51.262;7.066;2023-09-30T14:44:02;7.38;;;2.80;;
24161;SDS011;12318;51.262;7.066;2023-09-30T14:46:32;6.97;;;2.60;;
24161;SDS011;12318;51.262;7.066;2023-09-30T14:48:58;6.95;;;3.10;;
24161;SDS011;12318;51.262;7.066;2023-09-30T14:51:25;11.63;;;3.08;;
24161;SDS011;12318;51.262;7.066;2023-09-30T14:53:51;9.60;;;3.25;;
24161;SDS011;12318;51.262;7.066;2023-09-30T14:56:18;8.30;;;2.97;;
24161;SDS011;12318;51.262;7.066;2023-09-30T14:58:44;9.05;;;2.40;;
24161;SDS011;12318;51.262;7.066;2023-09-30T15:01:11;6.95;;;2.80;;
24161;SDS011;12318;51.262;7.066;2023-09-30T15:03:38;10.25;;;3.00;;
24161;SDS011;12318;51.262;7.066;2023-09-30T15:06:05;10.05;;;3.05;;